Nearby METAR Reports

 

KALB - Albany, New York, USA
Distance from station: E 47mi, 75km
Updated: Thu, 18-Jul-2024 2:51pm EDT
Mostly cloudy
Mostly cloudy
 Wind from W
Wind: W 15 mph, 24 km/h
Temperature: 81°F, 27°C
Dew Point: 54°F, 12°C
Humidity: 39%
Barometer: 29.93 inHg, 1013.5 hPa
Clouds: Mostly cloudy
Visibility: 10 miles, 16 km
Cloud details: Few Clouds 6000 ft
Partly cloudy 20000 ft
Mostly cloudy 25000 ft
2024/07/18 18:51 KALB 181851Z 28013KT 10SM FEW060 SCT200 BKN250 27/12 A2993 RMK AO2 SLP133 T02720122
KSLK - Saranac Lake, New York, USA
Distance from station: N 110mi, 177km
Updated: Thu, 18-Jul-2024 2:51pm EDT
Mostly cloudy
Mostly cloudy
 Wind from W
Wind: W 9 mph, 15 km/h
Temperature: 72°F, 22°C
Dew Point: 52°F, 11°C
Humidity: 50%
Barometer: 29.96 inHg, 1014.6 hPa
Clouds: Mostly cloudy
Visibility: 10 miles, 16 km
Cloud details: Partly cloudy 4100 ft
Mostly cloudy 5000 ft
2024/07/18 18:51 KSLK 181851Z AUTO 28008KT 250V310 10SM SCT041 BKN050 22/11 A2996 RMK AO2 SLP140 T02170111
 
KSYR - Syracuse, New York, USA
Distance from station: W 73mi, 117km
Updated: Thu, 18-Jul-2024 2:54pm EDT
Mostly cloudy
Mostly cloudy
 Wind from NW
Wind: NW 13 mph, 20 km/h, Gust: 24 mph, 39 km/h
Temperature: 75°F, 24°C
Dew Point: 55°F, 13°C
Humidity: 50%
Barometer: 30.01 inHg, 1016.3 hPa
Clouds: Mostly cloudy
Visibility: 10 miles, 16 km
Cloud details: Partly cloudy 4000 ft
Mostly cloudy 6000 ft
Mostly cloudy 20000 ft
2024/07/18 18:54 KSYR 181854Z 31011G21KT 10SM SCT040 BKN060 BKN200 24/13 A3001 RMK AO2 SLP155 T02440128
KBGM - Binghamton, New York, USA
Distance from station: SW 78mi, 126km
Updated: Thu, 18-Jul-2024 2:53pm EDT
Few Clouds
Few Clouds
 Wind from NW
Wind: NW 10 mph, 17 km/h, Gust: 21 mph, 33 km/h
Temperature: 75°F, 24°C
Dew Point: 54°F, 12°C
Humidity: 47%
Barometer: 30.02 inHg, 1016.6 hPa
Clouds: Few Clouds
Visibility: 10 miles, 16 km
Cloud details: Few Clouds 6000 ft
2024/07/18 18:53 KBGM 181853Z AUTO 32009G18KT 10SM FEW060 24/12 A3002 RMK AO2 SLP154 T02390117
 
KRME - Rome, New York, USA
Distance from station: WNW 43mi, 69km
Updated: Thu, 18-Jul-2024 2:53pm EDT
Few Clouds
Few Clouds
 Wind from WNW
Wind: WNW 15 mph, 24 km/h
Temperature: 73°F, 23°C
Dew Point: 55°F, 13°C
Humidity: 53%
Barometer: 29.98 inHg, 1015.2 hPa
Clouds: Few Clouds
Visibility: 10 miles, 16 km
Cloud details: Few Clouds 4800 ft
2024/07/18 18:53 KRME 181853Z 30013KT 10SM FEW048 23/13 A2998 RMK AO2 SLP147 T02330128
KJFK - New York, New York, USA
Distance from station: SSE 159mi, 256km
Updated: Thu, 18-Jul-2024 2:51pm EDT
Mostly cloudy
Mostly cloudy
 Wind from SW
Wind: SW 13 mph, 20 km/h
Temperature: 82°F, 28°C
Heat Index: 86°F, 30°C
Dew Point: 70°F, 21°C
Humidity: 66%
Barometer: 29.92 inHg, 1013.2 hPa
Clouds: Mostly cloudy
Visibility: 10 miles, 16 km
Cloud details: Partly cloudy 5000 ft
Partly cloudy 13000 ft
Mostly cloudy 25000 ft
2024/07/18 18:51 KJFK 181851Z 22011KT 10SM SCT050 SCT130 BKN250 28/21 A2992 RMK AO2 SLP137 T02830206 $
 
KROC - Rochester, New York, USA
Distance from station: W 150mi, 242km
Updated: Thu, 18-Jul-2024 2:54pm EDT
Partly cloudy
Partly cloudy
 Wind from N
Wind: N 12 mph, 19 km/h, Gust: 21 mph, 33 km/h
Temperature: 73°F, 23°C
Dew Point: 57°F, 14°C
Humidity: 57%
Barometer: 30.04 inHg, 1017.3 hPa
Clouds: Partly cloudy
Visibility: 10 miles, 16 km
Cloud details: Partly cloudy 3700 ft
Partly cloudy 4500 ft
Partly cloudy 7000 ft
2024/07/18 18:54 KROC 181854Z 35010G18KT 10SM SCT037 SCT045 SCT070 23/14 A3004 RMK AO2 SLP172 T02280139
KART - Watertown, New York, USA
Distance from station: NNW 103mi, 166km
Updated: Thu, 18-Jul-2024 2:56pm EDT
Partly cloudy
Partly cloudy
 Wind from WSW
Wind: WSW 12 mph, 19 km/h
Temperature: 73°F, 23°C
Dew Point: 59°F, 15°C
Humidity: 61%
Barometer: 29.99 inHg, 1015.6 hPa
Clouds: Partly cloudy
Visibility: 10 miles, 16 km
Cloud details: Partly cloudy 4000 ft
2024/07/18 18:56 KART 181856Z AUTO 24010KT 10SM SCT040 23/15 A2999 RMK AO2 SLP151 T02280150 $
 
KELM - Elmira-Corning, New York, USA
Distance from station: SSW 121mi, 195km
Updated: Thu, 18-Jul-2024 2:53pm EDT
Few Clouds
Few Clouds
 Wind from WNW
Wind: WNW 15 mph, 24 km/h, Gust: 22 mph, 35 km/h
Temperature: 79°F, 26°C
Dew Point: 54°F, 12°C
Humidity: 42%
Barometer: 30.00 inHg, 1015.9 hPa
Clouds: Few Clouds
Visibility: 10 miles, 16 km
Cloud details: Few Clouds 6000 ft
2024/07/18 18:53 KELM 181853Z 30013G19KT 10SM FEW060 26/12 A3000 RMK AO2 SLP152 T02560122
KJHW - Jamestown, New York, USA
Distance from station: SW 238mi, 383km
Updated: Thu, 18-Jul-2024 2:56pm EDT
Mostly cloudy
Mostly cloudy
 Wind from NW
Wind: NW 8 mph, 13 km/h
Temperature: 70°F, 21°C
Dew Point: 52°F, 11°C
Humidity: 53%
Barometer: 30.09 inHg, 1019 hPa
Clouds: Mostly cloudy
Visibility: 10 miles, 16 km
Cloud details: Mostly cloudy 4200 ft
Mostly cloudy 5000 ft
2024/07/18 18:56 KJHW 181856Z AUTO 31007KT 10SM BKN042 BKN050 21/11 A3009 RMK AO2 SLP188 T02110111
 
KMSS - Massena, New York, USA
Distance from station: N 141mi, 232km
Updated: Thu, 18-Jul-2024 2:53pm EDT
Few Clouds
Few Clouds
 Wind from W
Wind: W 15 mph, 24 km/h, Gust: 28 mph, 44 km/h
Temperature: 70°F, 21°C
Dew Point: 54°F, 12°C
Humidity: 57%
Barometer: 29.97 inHg, 1014.9 hPa
Clouds: Few Clouds
Visibility: 10 miles, 16 km
Cloud details: Few Clouds 4000 ft
Few Clouds 4700 ft
2024/07/18 18:53 KMSS 181853Z AUTO 28013G24KT 10SM FEW040 FEW047 21/12 A2997 RMK AO2 SLP148 T02110122
KBUF - Buffalo, New York, USA
Distance from station: W 204mi, 328km
Updated: Thu, 18-Jul-2024 2:54pm EDT
Mostly cloudy
Mostly cloudy
 Wind from WNW
Wind: WNW 7 mph, 11 km/h, Gust: 18 mph, 30 km/h
Temperature: 73°F, 23°C
Dew Point: 54°F, 12°C
Humidity: 50%
Barometer: 30.05 inHg, 1017.6 hPa
Clouds: Mostly cloudy
Visibility: 10 miles, 16 km
Cloud details: Few Clouds 4300 ft
Mostly cloudy 7000 ft
Mostly cloudy 23000 ft
Mostly cloudy 28000 ft
2024/07/18 18:54 KBUF 181854Z 29006G16KT 10SM FEW043 BKN070 BKN230 BKN280 23/12 A3005 RMK AO2 SLP171 T02330117